Weather History for Siloam Springs, AR

Change the Weather History Date:

Thursday, May 8, 2014

  Actual Average Record
Temperature  
Mean Temperature 68 °F -  
Max Temperature 73 °F 72 °F 87 °F (2011)
Min Temperature 64 °F 53 °F 44 °F (1999)
Cooling Degree Days 4    
Growing Degree Days 18 (Base 50)    
Moisture  
Dew Point 58 °F    
Average Humidity 69    
Maximum Humidity 83    
Minimum Humidity 57    
Precipitation  
Precipitation 1.14 in - - ()
Sea Level Pressure  
Sea Level Pressure 29.86 in    
Wind  
Wind Speed 13 mph (South)    
Max Wind Speed 18 mph    
Max Gust Speed 25 mph    
Visibility 10 miles    
Events Thunderstorm    
Averages and records for this station are not official NWS values.
T = Trace of Precipitation, MM = Missing Value Source: NWS Daily Summary

Daily Weather History Graph

Daily Weather History Graph

Search for Another Location

Airport:

Trip Planner

Search our weather history database for the weather conditions in past years. The results will help you decide how hot, cold, wet, or windy it might be!

Date:

Astronomy

May. 08, 2014 Rise Set
Actual Time 6:17 AM CDT 8:11 PM CDT
Civil Twilight 5:49 AM CDT 8:39 PM CDT
Nautical Twilight 5:15 AM CDT 9:13 PM CDT
Astronomical Twilight 4:39 AM CDT 9:50 PM CDT
Moon 2:23 PM CDT (5/8) 2:38 AM CDT (5/8)
Length of Visible Light 14h 49m
Length of Day
13h 53m
Waxing Gibbous, 65% of the Moon is Illuminated
May 8
Waxing Gibbous
May 14
Full
May 21
Last Quarter
May 28
New
Jun 5
First Quarter

Hourly Weather History & Observations

Time (CDT) Temp. Dew Point Humidity Pressure Visibility Wind Dir Wind Speed Gust Speed Precip Events Conditions
12:15 AM 73.4 °F 57.2 °F 57% 29.86 in 10.0 mi South 15.0 mph 23.0 mph N/A   Clear
12:35 AM 73.4 °F 57.2 °F 57% 29.86 in 10.0 mi South 15.0 mph 20.7 mph N/A   Clear
12:55 AM 73.4 °F 57.2 °F 57% 29.87 in 10.0 mi South 15.0 mph 20.7 mph N/A   Clear
1:15 AM 71.6 °F 57.2 °F 60% 29.88 in 10.0 mi South 16.1 mph 23.0 mph N/A   Clear
1:35 AM 71.6 °F 57.2 °F 60% 29.88 in 10.0 mi South 15.0 mph - N/A   Clear
1:55 AM 71.6 °F 57.2 °F 60% 29.88 in 10.0 mi South 12.7 mph 18.4 mph N/A   Clear
2:15 AM 71.6 °F 57.2 °F 60% 29.88 in 10.0 mi South 10.4 mph 17.3 mph N/A   Clear
2:35 AM 69.8 °F 55.4 °F 60% 29.89 in 10.0 mi SSW 10.4 mph - N/A   Clear
2:55 AM 69.8 °F 55.4 °F 60% 29.91 in 10.0 mi SSW 12.7 mph - N/A   Clear
3:15 AM 69.8 °F 55.4 °F 60% 29.91 in 10.0 mi SSW 15.0 mph - N/A   Clear
3:35 AM 69.8 °F 55.4 °F 60% 29.91 in 10.0 mi South 13.8 mph 18.4 mph N/A   Mostly Cloudy
3:55 AM 69.8 °F 55.4 °F 60% 29.90 in 10.0 mi South 10.4 mph - N/A   Partly Cloudy
4:15 AM 69.8 °F 55.4 °F 60% 29.88 in 10.0 mi SSE 9.2 mph - N/A   Clear
4:35 AM 69.8 °F 55.4 °F 60% 29.87 in 10.0 mi SSE 10.4 mph 16.1 mph N/A   Clear
4:55 AM 69.8 °F 55.4 °F 60% 29.87 in 10.0 mi SSE 11.5 mph - N/A   Clear
5:15 AM 68.0 °F 55.4 °F 64% 29.86 in 10.0 mi SSE 11.5 mph 17.3 mph N/A   Clear
5:35 AM 68.0 °F 55.4 °F 64% 29.86 in 10.0 mi SSE 10.4 mph - N/A   Clear
5:55 AM 69.8 °F 57.2 °F 64% 29.85 in 10.0 mi SSE 10.4 mph - N/A   Clear
6:15 AM 69.8 °F 57.2 °F 64% 29.86 in 10.0 mi South 11.5 mph 18.4 mph N/A   Clear
6:35 AM 69.8 °F 57.2 °F 64% 29.87 in 10.0 mi South 15.0 mph 20.7 mph N/A   Clear
6:55 AM 69.8 °F 57.2 °F 64% 29.86 in 10.0 mi South 13.8 mph 19.6 mph N/A   Clear
7:15 AM 69.8 °F 57.2 °F 64% 29.86 in 10.0 mi South 16.1 mph 23.0 mph N/A   Clear
7:35 AM 71.6 °F 57.2 °F 60% 29.86 in 10.0 mi South 13.8 mph 20.7 mph N/A   Clear
7:55 AM 71.6 °F 57.2 °F 60% 29.88 in 10.0 mi South 12.7 mph 19.6 mph N/A   Clear
8:15 AM 71.6 °F 59.0 °F 64% 29.91 in 10.0 mi SSW 17.3 mph - N/A   Scattered Clouds
8:35 AM 73.4 °F 59.0 °F 61% 29.92 in 10.0 mi SSW 15.0 mph - N/A   Overcast
8:55 AM 73.4 °F 60.8 °F 65% 29.92 in 10.0 mi SSW 16.1 mph 19.6 mph N/A   Overcast
9:15 AM 73.4 °F 60.8 °F 65% 29.91 in 10.0 mi South 13.8 mph 19.6 mph N/A   Mostly Cloudy
9:35 AM 73.4 °F 60.8 °F 65% 29.91 in 10.0 mi South 18.4 mph - N/A   Mostly Cloudy
9:55 AM 73.4 °F 60.8 °F 65% 29.90 in 10.0 mi South 17.3 mph 25.3 mph N/A   Scattered Clouds
10:15 AM 73.4 °F 60.8 °F 65% 29.89 in 10.0 mi South 15.0 mph 19.6 mph N/A   Scattered Clouds
10:35 AM 73.4 °F 60.8 °F 65% 29.89 in 10.0 mi South 13.8 mph 20.7 mph N/A   Partly Cloudy
10:55 AM 73.4 °F 60.8 °F 65% 29.88 in 10.0 mi South 9.2 mph - N/A   Mostly Cloudy
11:15 AM 73.4 °F 60.8 °F 65% 29.88 in 10.0 mi South 10.4 mph - N/A   Scattered Clouds
11:35 AM 73.4 °F 60.8 °F 65% 29.85 in 10.0 mi SSE 9.2 mph - N/A   Partly Cloudy
12:15 PM 71.6 °F 60.8 °F 69% 29.85 in 10.0 mi SE 3.5 mph - N/A Thunderstorm Mostly Cloudy
12:35 PM 71.6 °F 60.8 °F 69% 29.86 in 9.0 mi SSW 11.5 mph - N/A Thunderstorm Thunderstorm
12:55 PM 69.8 °F 60.8 °F 73% 29.88 in 8.0 mi WNW 15.0 mph 24.2 mph 0.05 in Thunderstorm Thunderstorm
1:15 PM 64.4 °F 57.2 °F 77% 29.87 in 5.0 mi SSW 9.2 mph - 0.54 in Thunderstorm Thunderstorm
1:35 PM 64.4 °F 57.2 °F 77% 29.86 in 6.0 mi SE 12.7 mph - 0.85 in Thunderstorm Thunderstorm
1:55 PM 64.4 °F 57.2 °F 77% 29.86 in 9.0 mi SE 8.1 mph - 0.91 in Thunderstorm Overcast
2:15 PM 64.4 °F 57.2 °F 77% 29.86 in 7.0 mi SE 11.5 mph - 0.05 in   Overcast
2:35 PM 64.4 °F 57.2 °F 77% 29.87 in 8.0 mi SE 10.4 mph - 0.10 in   Overcast
2:55 PM 64.4 °F 59.0 °F 83% 29.87 in 9.0 mi SE 8.1 mph - 0.13 in   Overcast
3:15 PM 66.2 °F 59.0 °F 78% 29.87 in 9.0 mi ESE 8.1 mph - 0.03 in   Mostly Cloudy
3:35 PM 66.2 °F 60.8 °F 83% 29.86 in 10.0 mi SE 10.4 mph - 0.04 in   Mostly Cloudy
3:55 PM 66.2 °F 60.8 °F 83% 29.86 in 10.0 mi SSE 10.4 mph - 0.04 in   Overcast
4:15 PM 66.2 °F 60.8 °F 83% 29.86 in 10.0 mi SSE 12.7 mph 21.9 mph 0.01 in   Mostly Cloudy
4:35 PM 66.2 °F 59.0 °F 78% 29.86 in 10.0 mi South 11.5 mph 18.4 mph 0.01 in   Overcast
4:55 PM 66.2 °F 59.0 °F 78% 29.85 in 10.0 mi South 10.4 mph - 0.01 in   Mostly Cloudy
5:15 PM 66.2 °F 59.0 °F 78% 29.86 in 10.0 mi South 12.7 mph 17.3 mph N/A   Mostly Cloudy
5:35 PM 66.2 °F 59.0 °F 78% 29.86 in 10.0 mi South 15.0 mph 20.7 mph N/A   Overcast
5:55 PM 66.2 °F 59.0 °F 78% 29.87 in 10.0 mi South 12.7 mph 17.3 mph N/A   Overcast
6:15 PM 66.2 °F 57.2 °F 73% 29.87 in 10.0 mi South 13.8 mph 18.4 mph N/A   Overcast
6:35 PM 66.2 °F 57.2 °F 73% 29.87 in 10.0 mi South 16.1 mph 24.2 mph N/A   Overcast
6:55 PM 66.2 °F 57.2 °F 73% 29.86 in 10.0 mi SSE 12.7 mph 18.4 mph N/A   Mostly Cloudy
7:15 PM 66.2 °F 57.2 °F 73% 29.83 in 10.0 mi SSE 10.4 mph - N/A   Partly Cloudy
7:35 PM 66.2 °F 57.2 °F 73% 29.82 in 10.0 mi SSE 12.7 mph - N/A   Clear
7:55 PM 64.4 °F 57.2 °F 77% 29.82 in 10.0 mi SSE 11.5 mph 16.1 mph N/A   Clear
8:15 PM 64.4 °F 57.2 °F 77% 29.81 in 10.0 mi SSE 8.1 mph - N/A   Clear
8:35 PM 64.4 °F 57.2 °F 77% 29.81 in - SSE 9.2 mph - N/A   Clear
8:55 PM 64.4 °F 57.2 °F 77% 29.80 in 10.0 mi SSE 12.7 mph 16.1 mph N/A   Clear
9:15 PM 64.4 °F 57.2 °F 77% 29.80 in 10.0 mi SSE 11.5 mph 18.4 mph N/A   Clear
9:35 PM 66.2 °F 55.4 °F 68% 29.80 in 10.0 mi South 11.5 mph - N/A   Clear
9:55 PM 66.2 °F 55.4 °F 68% 29.80 in 10.0 mi South 9.2 mph - N/A   Clear
10:15 PM 64.4 °F 55.4 °F 73% 29.81 in 10.0 mi SSW 11.5 mph - N/A   Clear
10:35 PM 64.4 °F 55.4 °F 73% 29.81 in 10.0 mi South 10.4 mph 17.3 mph N/A   Scattered Clouds
10:55 PM 64.4 °F 55.4 °F 73% 29.82 in 10.0 mi South 12.7 mph - N/A   Clear
11:15 PM 64.4 °F 55.4 °F 73% 29.83 in 10.0 mi South 13.8 mph 19.6 mph N/A   Clear
11:35 PM 64.4 °F 55.4 °F 73% 29.83 in 10.0 mi South 12.7 mph 16.1 mph N/A   Clear
11:55 PM 64.4 °F 55.4 °F 73% 29.83 in 10.0 mi South 8.1 mph - N/A   Partly Cloudy